sensor_id;sensor_type;location;lat;lon;timestamp;P1;durP1;ratioP1;P2;durP2;ratioP2
982;SDS011;480;48.124;11.578;2023-04-24T00:00:22;1.80;;;1.00;;
982;SDS011;480;48.124;11.578;2023-04-24T00:02:50;1.00;;;1.00;;
982;SDS011;480;48.124;11.578;2023-04-24T00:05:17;1.10;;;1.00;;
982;SDS011;480;48.124;11.578;2023-04-24T00:07:44;0.83;;;0.83;;
982;SDS011;480;48.124;11.578;2023-04-24T00:10:11;2.30;;;1.07;;
982;SDS011;480;48.124;11.578;2023-04-24T00:12:38;0.93;;;0.90;;
982;SDS011;480;48.124;11.578;2023-04-24T00:15:08;1.40;;;1.30;;
982;SDS011;480;48.124;11.578;2023-04-24T00:17:35;0.80;;;0.80;;
982;SDS011;480;48.124;11.578;2023-04-24T00:20:03;1.80;;;1.20;;
982;SDS011;480;48.124;11.578;2023-04-24T00:22:32;1.20;;;1.10;;
982;SDS011;480;48.124;11.578;2023-04-24T00:24:59;0.83;;;0.83;;
982;SDS011;480;48.124;11.578;2023-04-24T00:27:26;2.50;;;0.80;;
982;SDS011;480;48.124;11.578;2023-04-24T00:29:53;1.27;;;1.17;;
982;SDS011;480;48.124;11.578;2023-04-24T00:32:21;1.30;;;0.93;;
982;SDS011;480;48.124;11.578;2023-04-24T00:34:48;1.10;;;1.00;;
982;SDS011;480;48.124;11.578;2023-04-24T00:37:15;1.03;;;0.90;;
982;SDS011;480;48.124;11.578;2023-04-24T00:39:43;0.90;;;0.70;;
982;SDS011;480;48.124;11.578;2023-04-24T00:42:10;1.90;;;1.40;;
982;SDS011;480;48.124;11.578;2023-04-24T00:44:37;1.17;;;1.07;;
982;SDS011;480;48.124;11.578;2023-04-24T00:47:05;1.23;;;1.13;;
982;SDS011;480;48.124;11.578;2023-04-24T00:49:33;1.30;;;1.20;;
982;SDS011;480;48.124;11.578;2023-04-24T00:52:02;1.03;;;0.93;;
982;SDS011;480;48.124;11.578;2023-04-24T00:54:32;0.70;;;0.70;;
982;SDS011;480;48.124;11.578;2023-04-24T00:56:59;0.87;;;0.70;;
982;SDS011;480;48.124;11.578;2023-04-24T00:59:27;0.90;;;0.90;;
982;SDS011;480;48.124;11.578;2023-04-24T01:01:54;0.90;;;0.90;;
982;SDS011;480;48.124;11.578;2023-04-24T01:04:22;0.70;;;0.70;;
982;SDS011;480;48.124;11.578;2023-04-24T01:06:50;2.30;;;0.87;;
982;SDS011;480;48.124;11.578;2023-04-24T01:09:18;0.53;;;0.53;;
982;SDS011;480;48.124;11.578;2023-04-24T01:11:47;0.70;;;0.70;;
982;SDS011;480;48.124;11.578;2023-04-24T01:14:15;0.87;;;0.87;;
982;SDS011;480;48.124;11.578;2023-04-24T01:16:42;1.07;;;0.97;;
982;SDS011;480;48.124;11.578;2023-04-24T01:19:09;0.50;;;0.50;;
982;SDS011;480;48.124;11.578;2023-04-24T01:21:37;0.77;;;0.77;;
982;SDS011;480;48.124;11.578;2023-04-24T01:24:06;0.73;;;0.73;;
982;SDS011;480;48.124;11.578;2023-04-24T01:26:34;0.70;;;0.57;;
982;SDS011;480;48.124;11.578;2023-04-24T01:29:01;0.70;;;0.70;;
982;SDS011;480;48.124;11.578;2023-04-24T01:31:28;3.60;;;0.90;;
982;SDS011;480;48.124;11.578;2023-04-24T01:33:56;0.70;;;0.50;;
982;SDS011;480;48.124;11.578;2023-04-24T01:36:23;0.60;;;0.50;;
982;SDS011;480;48.124;11.578;2023-04-24T01:38:52;0.90;;;0.90;;
982;SDS011;480;48.124;11.578;2023-04-24T01:41:21;0.70;;;0.70;;
982;SDS011;480;48.124;11.578;2023-04-24T01:43:48;1.10;;;0.57;;
982;SDS011;480;48.124;11.578;2023-04-24T01:46:15;0.60;;;0.60;;
982;SDS011;480;48.124;11.578;2023-04-24T01:48:42;0.50;;;0.50;;
982;SDS011;480;48.124;11.578;2023-04-24T01:51:12;0.50;;;0.50;;
982;SDS011;480;48.124;11.578;2023-04-24T01:53:39;0.93;;;0.77;;
982;SDS011;480;48.124;11.578;2023-04-24T01:56:06;0.67;;;0.63;;
982;SDS011;480;48.124;11.578;2023-04-24T01:58:35;0.70;;;0.70;;
982;SDS011;480;48.124;11.578;2023-04-24T02:01:03;0.90;;;0.90;;
982;SDS011;480;48.124;11.578;2023-04-24T02:03:30;0.50;;;0.50;;
982;SDS011;480;48.124;11.578;2023-04-24T02:05:57;1.30;;;1.20;;
982;SDS011;480;48.124;11.578;2023-04-24T02:08:24;0.53;;;0.53;;
982;SDS011;480;48.124;11.578;2023-04-24T02:10:51;1.23;;;0.80;;
982;SDS011;480;48.124;11.578;2023-04-24T02:13:19;0.50;;;0.50;;
982;SDS011;480;48.124;11.578;2023-04-24T02:15:47;0.70;;;0.60;;
982;SDS011;480;48.124;11.578;2023-04-24T02:18:14;0.80;;;0.43;;
982;SDS011;480;48.124;11.578;2023-04-24T02:20:41;2.47;;;0.80;;
982;SDS011;480;48.124;11.578;2023-04-24T02:23:08;0.80;;;0.70;;
982;SDS011;480;48.124;11.578;2023-04-24T02:25:35;1.10;;;0.57;;
982;SDS011;480;48.124;11.578;2023-04-24T02:28:02;0.93;;;0.77;;
982;SDS011;480;48.124;11.578;2023-04-24T02:30:29;1.87;;;0.70;;
982;SDS011;480;48.124;11.578;2023-04-24T02:32:58;0.63;;;0.60;;
982;SDS011;480;48.124;11.578;2023-04-24T02:35:25;0.70;;;0.70;;
982;SDS011;480;48.124;11.578;2023-04-24T02:37:52;0.80;;;0.70;;
982;SDS011;480;48.124;11.578;2023-04-24T02:40:19;0.50;;;0.40;;
982;SDS011;480;48.124;11.578;2023-04-24T02:42:46;0.60;;;0.60;;
982;SDS011;480;48.124;11.578;2023-04-24T02:45:13;1.27;;;0.80;;
982;SDS011;480;48.124;11.578;2023-04-24T02:47:41;0.70;;;0.53;;
982;SDS011;480;48.124;11.578;2023-04-24T02:50:09;0.60;;;0.60;;
982;SDS011;480;48.124;11.578;2023-04-24T02:52:36;0.53;;;0.40;;
982;SDS011;480;48.124;11.578;2023-04-24T02:55:04;0.93;;;0.63;;
982;SDS011;480;48.124;11.578;2023-04-24T02:57:33;1.13;;;0.87;;
982;SDS011;480;48.124;11.578;2023-04-24T03:00:00;0.70;;;0.60;;
982;SDS011;480;48.124;11.578;2023-04-24T03:02:28;1.60;;;1.10;;
982;SDS011;480;48.124;11.578;2023-04-24T03:04:55;0.63;;;0.60;;
982;SDS011;480;48.124;11.578;2023-04-24T03:07:23;0.60;;;0.60;;
982;SDS011;480;48.124;11.578;2023-04-24T03:09:50;0.70;;;0.70;;
982;SDS011;480;48.124;11.578;2023-04-24T03:12:17;0.60;;;0.43;;
982;SDS011;480;48.124;11.578;2023-04-24T03:14:44;0.70;;;0.70;;
982;SDS011;480;48.124;11.578;2023-04-24T03:17:12;0.80;;;0.80;;
982;SDS011;480;48.124;11.578;2023-04-24T03:19:39;0.63;;;0.60;;
982;SDS011;480;48.124;11.578;2023-04-24T03:22:06;0.60;;;0.50;;
982;SDS011;480;48.124;11.578;2023-04-24T03:24:35;0.70;;;0.70;;
982;SDS011;480;48.124;11.578;2023-04-24T03:27:02;0.63;;;0.47;;
982;SDS011;480;48.124;11.578;2023-04-24T03:29:29;0.57;;;0.57;;
982;SDS011;480;48.124;11.578;2023-04-24T03:31:56;0.50;;;0.50;;
982;SDS011;480;48.124;11.578;2023-04-24T03:34:23;2.03;;;0.60;;
982;SDS011;480;48.124;11.578;2023-04-24T03:36:50;0.80;;;0.50;;
982;SDS011;480;48.124;11.578;2023-04-24T03:39:17;0.70;;;0.50;;
982;SDS011;480;48.124;11.578;2023-04-24T03:41:46;0.80;;;0.80;;
982;SDS011;480;48.124;11.578;2023-04-24T03:44:13;0.70;;;0.70;;
982;SDS011;480;48.124;11.578;2023-04-24T03:46:40;0.80;;;0.80;;
982;SDS011;480;48.124;11.578;2023-04-24T03:49:07;1.73;;;1.03;;
982;SDS011;480;48.124;11.578;2023-04-24T03:51:33;0.77;;;0.77;;
982;SDS011;480;48.124;11.578;2023-04-24T03:54:01;1.53;;;0.90;;
982;SDS011;480;48.124;11.578;2023-04-24T03:56:28;0.70;;;0.70;;
982;SDS011;480;48.124;11.578;2023-04-24T03:58:57;0.70;;;0.70;;
982;SDS011;480;48.124;11.578;2023-04-24T04:01:25;1.00;;;0.80;;
982;SDS011;480;48.124;11.578;2023-04-24T04:03:53;2.63;;;0.60;;
982;SDS011;480;48.124;11.578;2023-04-24T04:06:20;0.87;;;0.87;;
982;SDS011;480;48.124;11.578;2023-04-24T04:08:47;1.13;;;1.00;;
982;SDS011;480;48.124;11.578;2023-04-24T04:11:14;0.80;;;0.80;;
982;SDS011;480;48.124;11.578;2023-04-24T04:13:41;1.43;;;1.00;;
982;SDS011;480;48.124;11.578;2023-04-24T04:16:09;1.80;;;1.70;;
982;SDS011;480;48.124;11.578;2023-04-24T04:18:36;1.47;;;0.70;;
982;SDS011;480;48.124;11.578;2023-04-24T04:21:03;0.70;;;0.70;;
982;SDS011;480;48.124;11.578;2023-04-24T04:23:30;0.80;;;0.80;;
982;SDS011;480;48.124;11.578;2023-04-24T04:25:57;0.63;;;0.63;;
982;SDS011;480;48.124;11.578;2023-04-24T04:28:24;0.80;;;0.70;;
982;SDS011;480;48.124;11.578;2023-04-24T04:30:51;0.87;;;0.87;;
982;SDS011;480;48.124;11.578;2023-04-24T04:33:22;0.50;;;0.50;;
982;SDS011;480;48.124;11.578;2023-04-24T04:35:49;1.07;;;0.70;;
982;SDS011;480;48.124;11.578;2023-04-24T04:38:17;1.67;;;0.70;;
982;SDS011;480;48.124;11.578;2023-04-24T04:40:44;0.90;;;0.90;;
982;SDS011;480;48.124;11.578;2023-04-24T04:43:16;0.97;;;0.97;;
982;SDS011;480;48.124;11.578;2023-04-24T04:45:43;1.17;;;1.07;;
982;SDS011;480;48.124;11.578;2023-04-24T04:48:10;1.43;;;0.77;;
982;SDS011;480;48.124;11.578;2023-04-24T04:50:40;0.90;;;0.90;;
982;SDS011;480;48.124;11.578;2023-04-24T04:53:07;1.23;;;0.60;;
982;SDS011;480;48.124;11.578;2023-04-24T04:55:34;0.60;;;0.60;;
982;SDS011;480;48.124;11.578;2023-04-24T04:58:01;0.90;;;0.80;;
982;SDS011;480;48.124;11.578;2023-04-24T05:00:28;1.73;;;0.77;;
982;SDS011;480;48.124;11.578;2023-04-24T05:03:00;0.70;;;0.70;;
982;SDS011;480;48.124;11.578;2023-04-24T05:05:27;1.53;;;0.60;;
982;SDS011;480;48.124;11.578;2023-04-24T05:07:56;1.27;;;0.77;;
982;SDS011;480;48.124;11.578;2023-04-24T05:10:23;6.00;;;1.80;;
982;SDS011;480;48.124;11.578;2023-04-24T05:12:50;1.07;;;0.80;;
982;SDS011;480;48.124;11.578;2023-04-24T05:15:17;0.70;;;0.70;;
982;SDS011;480;48.124;11.578;2023-04-24T05:17:44;1.07;;;0.60;;
982;SDS011;480;48.124;11.578;2023-04-24T05:20:11;2.97;;;0.97;;
982;SDS011;480;48.124;11.578;2023-04-24T05:22:38;1.10;;;0.73;;
982;SDS011;480;48.124;11.578;2023-04-24T05:25:07;0.97;;;0.87;;
982;SDS011;480;48.124;11.578;2023-04-24T05:27:34;1.30;;;1.10;;
982;SDS011;480;48.124;11.578;2023-04-24T05:30:01;0.90;;;0.80;;
982;SDS011;480;48.124;11.578;2023-04-24T05:32:29;1.13;;;0.73;;
982;SDS011;480;48.124;11.578;2023-04-24T05:34:56;1.00;;;0.80;;
982;SDS011;480;48.124;11.578;2023-04-24T05:37:23;0.60;;;0.60;;
982;SDS011;480;48.124;11.578;2023-04-24T05:39:50;0.77;;;0.70;;
982;SDS011;480;48.124;11.578;2023-04-24T05:42:19;2.17;;;0.70;;
982;SDS011;480;48.124;11.578;2023-04-24T05:44:46;0.90;;;0.80;;
982;SDS011;480;48.124;11.578;2023-04-24T05:47:13;0.73;;;0.73;;
982;SDS011;480;48.124;11.578;2023-04-24T05:49:40;0.60;;;0.57;;
982;SDS011;480;48.124;11.578;2023-04-24T05:52:07;1.00;;;0.80;;
982;SDS011;480;48.124;11.578;2023-04-24T05:54:34;1.20;;;1.10;;
982;SDS011;480;48.124;11.578;2023-04-24T05:57:01;1.13;;;0.97;;
982;SDS011;480;48.124;11.578;2023-04-24T05:59:34;1.27;;;1.13;;
982;SDS011;480;48.124;11.578;2023-04-24T06:02:03;0.80;;;0.80;;
982;SDS011;480;48.124;11.578;2023-04-24T06:04:31;0.93;;;0.60;;
982;SDS011;480;48.124;11.578;2023-04-24T06:06:58;0.70;;;0.60;;
982;SDS011;480;48.124;11.578;2023-04-24T06:09:25;0.70;;;0.50;;
982;SDS011;480;48.124;11.578;2023-04-24T06:11:52;0.60;;;0.60;;
982;SDS011;480;48.124;11.578;2023-04-24T06:14:20;0.73;;;0.60;;
982;SDS011;480;48.124;11.578;2023-04-24T06:16:48;0.93;;;0.93;;
982;SDS011;480;48.124;11.578;2023-04-24T06:19:15;0.87;;;0.67;;
982;SDS011;480;48.124;11.578;2023-04-24T06:21:42;0.53;;;0.53;;
982;SDS011;480;48.124;11.578;2023-04-24T06:24:10;0.60;;;0.60;;
982;SDS011;480;48.124;11.578;2023-04-24T06:26:37;0.60;;;0.60;;
982;SDS011;480;48.124;11.578;2023-04-24T06:29:04;1.27;;;0.60;;
982;SDS011;480;48.124;11.578;2023-04-24T06:31:32;0.70;;;0.70;;
982;SDS011;480;48.124;11.578;2023-04-24T06:34:03;0.93;;;0.60;;
982;SDS011;480;48.124;11.578;2023-04-24T06:36:30;0.83;;;0.80;;
982;SDS011;480;48.124;11.578;2023-04-24T06:38:59;0.53;;;0.53;;
982;SDS011;480;48.124;11.578;2023-04-24T06:41:26;0.90;;;0.60;;
982;SDS011;480;48.124;11.578;2023-04-24T06:43:54;0.50;;;0.50;;
982;SDS011;480;48.124;11.578;2023-04-24T06:46:21;0.50;;;0.40;;
982;SDS011;480;48.124;11.578;2023-04-24T06:48:51;1.10;;;0.70;;
982;SDS011;480;48.124;11.578;2023-04-24T06:51:22;0.63;;;0.60;;
982;SDS011;480;48.124;11.578;2023-04-24T06:53:49;0.70;;;0.60;;
982;SDS011;480;48.124;11.578;2023-04-24T06:56:17;0.63;;;0.63;;
982;SDS011;480;48.124;11.578;2023-04-24T06:58:44;0.80;;;0.50;;
982;SDS011;480;48.124;11.578;2023-04-24T07:01:11;0.80;;;0.80;;
982;SDS011;480;48.124;11.578;2023-04-24T07:03:38;0.80;;;0.60;;
982;SDS011;480;48.124;11.578;2023-04-24T07:06:05;0.90;;;0.60;;
982;SDS011;480;48.124;11.578;2023-04-24T07:08:34;0.50;;;0.50;;
982;SDS011;480;48.124;11.578;2023-04-24T07:11:01;1.13;;;0.60;;
982;SDS011;480;48.124;11.578;2023-04-24T07:13:29;0.57;;;0.57;;
982;SDS011;480;48.124;11.578;2023-04-24T07:15:56;0.60;;;0.60;;
982;SDS011;480;48.124;11.578;2023-04-24T07:18:23;1.57;;;1.47;;
982;SDS011;480;48.124;11.578;2023-04-24T07:20:50;0.50;;;0.40;;
982;SDS011;480;48.124;11.578;2023-04-24T07:23:17;0.60;;;0.60;;
982;SDS011;480;48.124;11.578;2023-04-24T07:25:46;0.50;;;0.50;;
982;SDS011;480;48.124;11.578;2023-04-24T07:28:13;0.70;;;0.50;;
982;SDS011;480;48.124;11.578;2023-04-24T07:30:40;0.50;;;0.50;;
982;SDS011;480;48.124;11.578;2023-04-24T07:33:07;0.60;;;0.60;;
982;SDS011;480;48.124;11.578;2023-04-24T07:35:36;0.50;;;0.40;;
982;SDS011;480;48.124;11.578;2023-04-24T07:38:03;0.53;;;0.47;;
982;SDS011;480;48.124;11.578;2023-04-24T07:40:30;0.60;;;0.50;;
982;SDS011;480;48.124;11.578;2023-04-24T07:42:58;0.50;;;0.50;;
982;SDS011;480;48.124;11.578;2023-04-24T07:45:25;0.53;;;0.53;;
982;SDS011;480;48.124;11.578;2023-04-24T07:47:53;0.50;;;0.50;;
982;SDS011;480;48.124;11.578;2023-04-24T07:50:20;0.50;;;0.50;;
982;SDS011;480;48.124;11.578;2023-04-24T07:52:51;0.80;;;0.70;;
982;SDS011;480;48.124;11.578;2023-04-24T07:55:17;0.60;;;0.50;;
982;SDS011;480;48.124;11.578;2023-04-24T07:57:44;0.60;;;0.40;;
982;SDS011;480;48.124;11.578;2023-04-24T08:00:13;2.20;;;0.60;;
982;SDS011;480;48.124;11.578;2023-04-24T08:02:41;3.13;;;1.07;;
982;SDS011;480;48.124;11.578;2023-04-24T08:05:08;0.50;;;0.40;;
982;SDS011;480;48.124;11.578;2023-04-24T08:07:35;0.70;;;0.57;;
982;SDS011;480;48.124;11.578;2023-04-24T08:10:02;0.60;;;0.60;;
982;SDS011;480;48.124;11.578;2023-04-24T08:12:29;0.70;;;0.60;;
982;SDS011;480;48.124;11.578;2023-04-24T08:14:57;1.00;;;0.70;;
982;SDS011;480;48.124;11.578;2023-04-24T08:17:25;0.57;;;0.57;;
982;SDS011;480;48.124;11.578;2023-04-24T08:19:52;0.80;;;0.60;;
982;SDS011;480;48.124;11.578;2023-04-24T08:22:26;0.50;;;0.50;;
982;SDS011;480;48.124;11.578;2023-04-24T08:24:53;0.60;;;0.50;;
982;SDS011;480;48.124;11.578;2023-04-24T08:27:21;0.60;;;0.60;;
982;SDS011;480;48.124;11.578;2023-04-24T08:29:48;1.27;;;0.60;;
982;SDS011;480;48.124;11.578;2023-04-24T08:32:16;0.60;;;0.60;;
982;SDS011;480;48.124;11.578;2023-04-24T08:34:45;0.67;;;0.67;;
982;SDS011;480;48.124;11.578;2023-04-24T08:37:12;1.07;;;0.63;;
982;SDS011;480;48.124;11.578;2023-04-24T08:39:39;0.60;;;0.60;;
982;SDS011;480;48.124;11.578;2023-04-24T08:42:06;3.77;;;0.97;;
982;SDS011;480;48.124;11.578;2023-04-24T08:44:34;0.60;;;0.60;;
982;SDS011;480;48.124;11.578;2023-04-24T08:47:02;2.40;;;0.90;;
982;SDS011;480;48.124;11.578;2023-04-24T08:49:29;1.20;;;1.10;;
982;SDS011;480;48.124;11.578;2023-04-24T08:51:58;1.93;;;0.83;;
982;SDS011;480;48.124;11.578;2023-04-24T08:54:26;1.53;;;1.43;;
982;SDS011;480;48.124;11.578;2023-04-24T08:56:53;1.47;;;1.33;;
982;SDS011;480;48.124;11.578;2023-04-24T08:59:24;1.20;;;1.20;;
982;SDS011;480;48.124;11.578;2023-04-24T09:01:51;1.03;;;0.90;;
982;SDS011;480;48.124;11.578;2023-04-24T09:04:19;1.40;;;1.30;;
982;SDS011;480;48.124;11.578;2023-04-24T09:06:49;1.23;;;1.00;;
982;SDS011;480;48.124;11.578;2023-04-24T09:09:18;1.33;;;1.10;;
982;SDS011;480;48.124;11.578;2023-04-24T09:11:45;1.10;;;0.73;;
982;SDS011;480;48.124;11.578;2023-04-24T09:14:12;1.20;;;1.10;;
982;SDS011;480;48.124;11.578;2023-04-24T09:16:40;1.30;;;1.00;;
982;SDS011;480;48.124;11.578;2023-04-24T09:19:07;3.30;;;2.00;;
982;SDS011;480;48.124;11.578;2023-04-24T09:21:34;1.50;;;1.00;;
982;SDS011;480;48.124;11.578;2023-04-24T09:24:03;1.23;;;1.00;;
982;SDS011;480;48.124;11.578;2023-04-24T09:26:34;0.90;;;0.90;;
982;SDS011;480;48.124;11.578;2023-04-24T09:29:02;1.03;;;0.93;;
982;SDS011;480;48.124;11.578;2023-04-24T09:31:30;1.10;;;1.10;;
982;SDS011;480;48.124;11.578;2023-04-24T09:33:58;2.57;;;1.77;;
982;SDS011;480;48.124;11.578;2023-04-24T09:36:28;2.40;;;1.30;;
982;SDS011;480;48.124;11.578;2023-04-24T09:38:58;1.00;;;0.90;;
982;SDS011;480;48.124;11.578;2023-04-24T09:41:25;0.80;;;0.80;;
982;SDS011;480;48.124;11.578;2023-04-24T09:43:55;1.27;;;0.93;;
982;SDS011;480;48.124;11.578;2023-04-24T09:46:29;1.10;;;1.00;;
982;SDS011;480;48.124;11.578;2023-04-24T09:48:57;1.50;;;1.13;;
982;SDS011;480;48.124;11.578;2023-04-24T09:51:33;1.30;;;1.20;;
982;SDS011;480;48.124;11.578;2023-04-24T09:54:02;1.70;;;1.27;;
982;SDS011;480;48.124;11.578;2023-04-24T09:56:32;1.20;;;1.10;;
982;SDS011;480;48.124;11.578;2023-04-24T09:59:07;1.13;;;1.03;;
982;SDS011;480;48.124;11.578;2023-04-24T10:01:34;1.47;;;1.30;;
982;SDS011;480;48.124;11.578;2023-04-24T10:04:03;2.73;;;1.00;;
982;SDS011;480;48.124;11.578;2023-04-24T10:06:32;1.20;;;1.10;;
982;SDS011;480;48.124;11.578;2023-04-24T10:09:00;0.97;;;0.90;;
982;SDS011;480;48.124;11.578;2023-04-24T10:11:28;1.37;;;1.17;;
982;SDS011;480;48.124;11.578;2023-04-24T10:13:56;4.47;;;3.40;;
982;SDS011;480;48.124;11.578;2023-04-24T10:16:26;1.40;;;1.30;;
982;SDS011;480;48.124;11.578;2023-04-24T10:18:53;1.33;;;1.10;;
982;SDS011;480;48.124;11.578;2023-04-24T10:21:21;1.23;;;1.13;;
982;SDS011;480;48.124;11.578;2023-04-24T10:23:49;1.30;;;1.20;;
982;SDS011;480;48.124;11.578;2023-04-24T10:26:17;1.40;;;1.30;;
982;SDS011;480;48.124;11.578;2023-04-24T10:28:45;1.40;;;1.30;;
982;SDS011;480;48.124;11.578;2023-04-24T10:31:13;2.57;;;1.43;;
982;SDS011;480;48.124;11.578;2023-04-24T10:33:42;1.17;;;1.03;;
982;SDS011;480;48.124;11.578;2023-04-24T10:36:12;1.10;;;1.10;;
982;SDS011;480;48.124;11.578;2023-04-24T10:38:41;1.57;;;1.37;;
982;SDS011;480;48.124;11.578;2023-04-24T10:41:12;1.23;;;1.13;;
982;SDS011;480;48.124;11.578;2023-04-24T10:43:41;5.07;;;1.27;;
982;SDS011;480;48.124;11.578;2023-04-24T10:46:08;2.80;;;1.50;;
982;SDS011;480;48.124;11.578;2023-04-24T10:48:36;2.07;;;1.37;;
982;SDS011;480;48.124;11.578;2023-04-24T10:51:18;2.67;;;1.87;;
982;SDS011;480;48.124;11.578;2023-04-24T10:53:49;2.60;;;1.20;;
982;SDS011;480;48.124;11.578;2023-04-24T10:56:16;1.40;;;1.30;;
982;SDS011;480;48.124;11.578;2023-04-24T10:58:44;1.30;;;1.20;;
982;SDS011;480;48.124;11.578;2023-04-24T11:01:23;2.30;;;1.17;;
982;SDS011;480;48.124;11.578;2023-04-24T11:03:55;0.93;;;0.90;;
982;SDS011;480;48.124;11.578;2023-04-24T11:06:28;0.87;;;0.80;;
982;SDS011;480;48.124;11.578;2023-04-24T11:08:59;0.90;;;0.80;;
982;SDS011;480;48.124;11.578;2023-04-24T11:11:29;2.00;;;0.97;;
982;SDS011;480;48.124;11.578;2023-04-24T11:14:06;0.90;;;0.90;;
982;SDS011;480;48.124;11.578;2023-04-24T11:16:35;1.10;;;1.00;;
982;SDS011;480;48.124;11.578;2023-04-24T11:19:07;1.00;;;1.00;;
982;SDS011;480;48.124;11.578;2023-04-24T11:21:42;1.03;;;1.00;;
982;SDS011;480;48.124;11.578;2023-04-24T11:27:06;1.27;;;1.17;;
982;SDS011;480;48.124;11.578;2023-04-24T11:29:39;1.40;;;1.30;;
982;SDS011;480;48.124;11.578;2023-04-24T11:34:59;1.30;;;1.20;;
982;SDS011;480;48.124;11.578;2023-04-24T11:37:27;1.20;;;1.10;;
982;SDS011;480;48.124;11.578;2023-04-24T11:39:56;2.30;;;1.33;;
982;SDS011;480;48.124;11.578;2023-04-24T11:42:24;1.27;;;1.17;;
982;SDS011;480;48.124;11.578;2023-04-24T11:44:52;1.90;;;1.10;;
982;SDS011;480;48.124;11.578;2023-04-24T11:47:27;1.30;;;1.20;;
982;SDS011;480;48.124;11.578;2023-04-24T11:49:55;1.30;;;1.20;;
982;SDS011;480;48.124;11.578;2023-04-24T11:52:23;1.40;;;1.13;;
982;SDS011;480;48.124;11.578;2023-04-24T11:54:50;1.27;;;1.17;;
982;SDS011;480;48.124;11.578;2023-04-24T11:57:18;1.83;;;1.63;;
982;SDS011;480;48.124;11.578;2023-04-24T11:59:46;1.10;;;0.90;;
982;SDS011;480;48.124;11.578;2023-04-24T12:02:20;1.70;;;1.43;;
982;SDS011;480;48.124;11.578;2023-04-24T12:04:47;1.03;;;0.93;;
982;SDS011;480;48.124;11.578;2023-04-24T12:07:15;1.00;;;1.00;;
982;SDS011;480;48.124;11.578;2023-04-24T12:09:44;1.10;;;1.10;;
982;SDS011;480;48.124;11.578;2023-04-24T12:12:12;0.97;;;0.93;;
982;SDS011;480;48.124;11.578;2023-04-24T12:14:43;1.60;;;1.20;;
982;SDS011;480;48.124;11.578;2023-04-24T12:17:10;0.97;;;0.87;;
982;SDS011;480;48.124;11.578;2023-04-24T12:19:38;1.13;;;1.03;;
982;SDS011;480;48.124;11.578;2023-04-24T12:22:12;1.00;;;1.00;;
982;SDS011;480;48.124;11.578;2023-04-24T12:27:28;1.53;;;1.20;;
982;SDS011;480;48.124;11.578;2023-04-24T12:29:58;1.30;;;1.20;;
982;SDS011;480;48.124;11.578;2023-04-24T12:32:25;0.90;;;0.90;;
982;SDS011;480;48.124;11.578;2023-04-24T12:34:52;1.30;;;1.30;;
982;SDS011;480;48.124;11.578;2023-04-24T12:37:20;1.27;;;1.17;;
982;SDS011;480;48.124;11.578;2023-04-24T12:39:59;1.10;;;1.00;;
982;SDS011;480;48.124;11.578;2023-04-24T12:42:32;1.00;;;0.90;;
982;SDS011;480;48.124;11.578;2023-04-24T12:45:01;1.70;;;1.50;;
982;SDS011;480;48.124;11.578;2023-04-24T12:47:30;1.97;;;1.80;;
982;SDS011;480;48.124;11.578;2023-04-24T12:49:57;1.57;;;1.47;;
982;SDS011;480;48.124;11.578;2023-04-24T12:52:25;1.63;;;1.43;;
982;SDS011;480;48.124;11.578;2023-04-24T12:54:53;2.37;;;1.73;;
982;SDS011;480;48.124;11.578;2023-04-24T12:57:23;2.40;;;1.47;;
982;SDS011;480;48.124;11.578;2023-04-24T12:59:52;1.47;;;1.37;;
982;SDS011;480;48.124;11.578;2023-04-24T13:02:19;1.10;;;1.00;;
982;SDS011;480;48.124;11.578;2023-04-24T13:04:47;1.70;;;1.60;;
982;SDS011;480;48.124;11.578;2023-04-24T13:07:14;1.77;;;1.67;;
982;SDS011;480;48.124;11.578;2023-04-24T13:09:42;2.10;;;1.50;;
982;SDS011;480;48.124;11.578;2023-04-24T13:12:10;3.00;;;1.93;;
982;SDS011;480;48.124;11.578;2023-04-24T13:14:39;1.37;;;1.27;;
982;SDS011;480;48.124;11.578;2023-04-24T13:17:06;1.47;;;1.37;;
982;SDS011;480;48.124;11.578;2023-04-24T13:19:35;1.40;;;1.30;;
982;SDS011;480;48.124;11.578;2023-04-24T13:22:03;1.33;;;1.23;;
982;SDS011;480;48.124;11.578;2023-04-24T13:24:30;1.90;;;1.63;;
982;SDS011;480;48.124;11.578;2023-04-24T13:26:57;1.60;;;1.43;;
982;SDS011;480;48.124;11.578;2023-04-24T13:29:25;2.63;;;1.60;;
982;SDS011;480;48.124;11.578;2023-04-24T13:31:53;1.40;;;1.30;;
982;SDS011;480;48.124;11.578;2023-04-24T13:34:21;1.40;;;1.30;;
982;SDS011;480;48.124;11.578;2023-04-24T13:36:48;1.37;;;1.27;;
982;SDS011;480;48.124;11.578;2023-04-24T13:39:16;1.20;;;1.10;;
982;SDS011;480;48.124;11.578;2023-04-24T13:41:43;2.40;;;1.17;;
982;SDS011;480;48.124;11.578;2023-04-24T13:44:10;2.27;;;1.40;;
982;SDS011;480;48.124;11.578;2023-04-24T13:46:37;1.43;;;1.23;;
982;SDS011;480;48.124;11.578;2023-04-24T13:49:06;1.40;;;1.30;;
982;SDS011;480;48.124;11.578;2023-04-24T13:51:34;1.47;;;1.20;;
982;SDS011;480;48.124;11.578;2023-04-24T13:54:01;2.23;;;1.63;;
982;SDS011;480;48.124;11.578;2023-04-24T13:56:28;2.00;;;1.20;;
982;SDS011;480;48.124;11.578;2023-04-24T13:58:55;1.60;;;1.17;;
982;SDS011;480;48.124;11.578;2023-04-24T14:01:22;1.50;;;1.40;;
982;SDS011;480;48.124;11.578;2023-04-24T14:03:50;1.30;;;1.20;;
982;SDS011;480;48.124;11.578;2023-04-24T14:06:18;1.60;;;1.50;;
982;SDS011;480;48.124;11.578;2023-04-24T14:08:45;1.73;;;1.30;;
982;SDS011;480;48.124;11.578;2023-04-24T14:11:12;1.70;;;1.60;;
982;SDS011;480;48.124;11.578;2023-04-24T14:13:40;1.40;;;1.30;;
982;SDS011;480;48.124;11.578;2023-04-24T14:16:07;1.70;;;1.60;;
982;SDS011;480;48.124;11.578;2023-04-24T14:18:34;1.90;;;1.70;;
982;SDS011;480;48.124;11.578;2023-04-24T14:21:02;2.30;;;1.47;;
982;SDS011;480;48.124;11.578;2023-04-24T14:23:30;2.17;;;1.40;;
982;SDS011;480;48.124;11.578;2023-04-24T14:25:57;2.40;;;2.20;;
982;SDS011;480;48.124;11.578;2023-04-24T14:28:25;1.47;;;1.30;;
982;SDS011;480;48.124;11.578;2023-04-24T14:30:52;1.93;;;1.80;;
982;SDS011;480;48.124;11.578;2023-04-24T14:33:19;2.80;;;1.80;;
982;SDS011;480;48.124;11.578;2023-04-24T14:35:46;1.57;;;1.20;;
982;SDS011;480;48.124;11.578;2023-04-24T14:38:13;1.20;;;1.10;;
982;SDS011;480;48.124;11.578;2023-04-24T14:40:42;3.17;;;2.10;;
982;SDS011;480;48.124;11.578;2023-04-24T14:43:09;1.80;;;1.30;;
982;SDS011;480;48.124;11.578;2023-04-24T14:45:36;1.93;;;1.83;;
982;SDS011;480;48.124;11.578;2023-04-24T14:48:03;1.40;;;1.30;;
982;SDS011;480;48.124;11.578;2023-04-24T14:50:30;1.70;;;1.50;;
982;SDS011;480;48.124;11.578;2023-04-24T14:52:57;2.00;;;1.80;;
982;SDS011;480;48.124;11.578;2023-04-24T14:55:24;1.73;;;1.50;;
982;SDS011;480;48.124;11.578;2023-04-24T14:57:53;1.60;;;1.30;;
982;SDS011;480;48.124;11.578;2023-04-24T15:00:20;1.73;;;1.40;;
982;SDS011;480;48.124;11.578;2023-04-24T15:02:48;1.20;;;1.10;;
982;SDS011;480;48.124;11.578;2023-04-24T15:05:15;2.07;;;1.90;;
982;SDS011;480;48.124;11.578;2023-04-24T15:07:42;2.70;;;1.53;;
982;SDS011;480;48.124;11.578;2023-04-24T15:10:10;2.40;;;1.50;;
982;SDS011;480;48.124;11.578;2023-04-24T15:12:37;1.50;;;1.40;;
982;SDS011;480;48.124;11.578;2023-04-24T15:15:07;1.30;;;0.90;;
982;SDS011;480;48.124;11.578;2023-04-24T15:17:35;1.53;;;1.40;;
982;SDS011;480;48.124;11.578;2023-04-24T15:20:02;1.60;;;1.50;;
982;SDS011;480;48.124;11.578;2023-04-24T15:22:31;2.10;;;1.90;;
982;SDS011;480;48.124;11.578;2023-04-24T15:24:58;2.17;;;2.07;;
982;SDS011;480;48.124;11.578;2023-04-24T15:27:26;1.70;;;1.60;;
982;SDS011;480;48.124;11.578;2023-04-24T15:29:53;1.03;;;0.93;;
982;SDS011;480;48.124;11.578;2023-04-24T15:32:21;1.97;;;1.30;;
982;SDS011;480;48.124;11.578;2023-04-24T15:34:48;2.60;;;1.27;;
982;SDS011;480;48.124;11.578;2023-04-24T15:37:17;3.57;;;1.60;;
982;SDS011;480;48.124;11.578;2023-04-24T15:39:50;2.30;;;1.47;;
982;SDS011;480;48.124;11.578;2023-04-24T15:42:24;1.50;;;1.40;;